Time;durP1;ratioP1;P1;durP2;ratioP2;P2;SDS_P1;SDS_P2;PMS_P1;PMS_P2;Temp;Humidity;BMP_temperature;BMP_pressure;BME280_temperature;BME280_humidity;BME280_pressure;Samples;Min_cycle;Max_cycle;Signal;HPM_P1;HPM_P2
2022/04/21 00:00:35;;;;;;;7.93;4.93;;;10.70;42.60;;;;;;5097200;28;20454;-75
2022/04/21 00:03:02;;;;;;;9.10;6.00;;;10.70;42.60;;;;;;5079971;28;20040;-74
2022/04/21 00:05:28;;;;;;;8.43;4.78;;;10.70;42.60;;;;;;5114487;28;20418;-75
2022/04/21 00:07:56;;;;;;;8.32;5.20;;;10.80;42.60;;;;;;5096999;28;20106;-76
2022/04/21 00:10:25;;;;;;;8.38;5.68;;;10.80;42.60;;;;;;5080344;28;20035;-75
2022/04/21 00:13:01;;;;;;;11.38;6.38;;;10.90;42.70;;;;;;5115004;28;20478;-75
2022/04/21 00:15:27;;;;;;;9.82;6.22;;;10.90;43.50;;;;;;5078072;28;20056;-75
2022/04/21 00:17:54;;;;;;;11.18;6.43;;;10.90;43.40;;;;;;5110129;28;20047;-76
2022/04/21 00:20:21;;;;;;;8.05;5.57;;;11.00;43.40;;;;;;5096246;28;20027;-75
2022/04/21 00:25:32;;;;;;;7.90;5.30;;;11.00;43.50;;;;;;5114936;28;20030;-76
2022/04/21 00:27:59;;;;;;;9.00;6.05;;;11.10;43.20;;;;;;5093226;28;20391;-75
2022/04/21 00:30:25;;;;;;;8.48;5.53;;;11.10;43.00;;;;;;5079826;28;20028;-75
2022/04/21 00:32:52;;;;;;;9.35;5.93;;;11.10;42.90;;;;;;5096008;28;20066;-75
2022/04/21 00:35:18;;;;;;;8.57;5.45;;;11.10;43.00;;;;;;5113716;28;20023;-76
2022/04/21 00:37:56;;;;;;;9.20;5.95;;;11.20;43.00;;;;;;5093105;28;20036;-75
2022/04/21 00:40:26;;;;;;;12.65;5.47;;;11.20;43.10;;;;;;5097562;27;20142;-75
2022/04/21 00:42:54;;;;;;;8.95;5.60;;;11.20;42.80;;;;;;5099252;27;20126;-75
2022/04/21 00:45:22;;;;;;;12.65;5.70;;;11.20;42.70;;;;;;5134209;27;20023;-75
2022/04/21 00:47:53;;;;;;;8.60;5.45;;;11.20;42.80;;;;;;5116719;27;20077;-76
2022/04/21 00:50:35;;;;;;;9.13;6.03;;;11.30;42.70;;;;;;5116067;27;20026;-75
2022/04/21 00:53:02;;;;;;;9.75;5.70;;;11.20;42.60;;;;;;5115319;27;20063;-75
2022/04/21 00:55:30;;;;;;;9.00;5.88;;;11.20;42.60;;;;;;5111080;28;20016;-75
2022/04/21 00:57:56;;;;;;;8.63;5.75;;;11.20;42.70;;;;;;5095400;28;20024;-75
2022/04/21 01:00:24;;;;;;;12.68;5.65;;;11.30;42.80;;;;;;5096105;28;20032;-76
2022/04/21 01:02:50;;;;;;;7.20;5.00;;;11.30;42.80;;;;;;5078019;28;20048;-75
2022/04/21 01:05:31;;;;;;;7.82;5.95;;;11.20;42.80;;;;;;5098874;27;20050;-75
2022/04/21 01:08:01;;;;;;;10.27;5.78;;;11.20;42.70;;;;;;5115612;27;20084;-75
2022/04/21 01:10:28;;;;;;;10.90;6.00;;;11.20;42.60;;;;;;5113008;28;20451;-75
2022/04/21 01:12:54;;;;;;;8.48;5.68;;;11.20;42.50;;;;;;5112742;28;20051;-76
2022/04/21 01:15:21;;;;;;;13.63;6.07;;;11.20;42.50;;;;;;5112642;28;20125;-75
2022/04/21 01:17:47;;;;;;;9.13;6.28;;;11.10;42.50;;;;;;5113682;28;20459;-75
2022/04/21 01:20:23;;;;;;;6.63;4.85;;;11.10;42.60;;;;;;5112590;28;20038;-75
2022/04/21 01:22:52;;;;;;;7.57;5.38;;;11.10;42.70;;;;;;5114642;27;20058;-75
2022/04/21 01:25:20;;;;;;;8.50;6.00;;;11.00;42.70;;;;;;5115767;27;20031;-75
2022/04/21 01:27:50;;;;;;;7.93;5.47;;;11.00;43.00;;;;;;5114939;27;20489;-75
2022/04/21 01:30:16;;;;;;;6.72;5.28;;;10.90;43.00;;;;;;5133541;27;20034;-76
2022/04/21 01:32:44;;;;;;;8.05;5.43;;;10.90;43.00;;;;;;5114616;27;20031;-75
2022/04/21 01:35:11;;;;;;;8.18;4.78;;;10.80;43.10;;;;;;5116067;27;20160;-75
2022/04/21 01:43:07;;;;;;;9.40;4.78;;;10.70;43.30;;;;;;5113787;28;20458;-75
2022/04/21 01:45:35;;;;;;;9.70;6.18;;;10.60;43.60;;;;;;5112436;28;20119;-75
2022/04/21 01:48:02;;;;;;;8.52;5.72;;;10.60;44.10;;;;;;5112190;28;20020;-75
2022/04/21 01:50:28;;;;;;;7.72;5.30;;;10.50;44.10;;;;;;5115862;28;20050;-75
2022/04/21 01:52:55;;;;;;;7.30;5.22;;;10.50;44.20;;;;;;5111753;27;20031;-76
2022/04/21 01:55:25;;;;;;;9.07;5.57;;;10.50;44.30;;;;;;5133584;28;20106;-75
2022/04/21 01:57:51;;;;;;;8.25;5.57;;;10.40;45.20;;;;;;5116508;28;20026;-76
2022/04/21 02:00:17;;;;;;;8.45;5.65;;;10.40;45.50;;;;;;5115553;28;20454;-76
2022/04/21 02:02:43;;;;;;;8.45;5.88;;;10.40;45.40;;;;;;5098240;28;20040;-75
2022/04/21 02:05:09;;;;;;;7.85;5.50;;;10.40;45.40;;;;;;5095214;28;20032;-76
2022/04/21 02:07:39;;;;;;;14.70;5.78;;;10.40;45.60;;;;;;5095663;28;20031;-75
2022/04/21 02:10:06;;;;;;;11.02;6.15;;;10.50;45.80;;;;;;5113259;28;20031;-75
2022/04/21 02:12:31;;;;;;;9.80;6.43;;;10.40;46.00;;;;;;5107891;28;20091;-75
2022/04/21 02:15:02;;;;;;;8.35;5.07;;;10.50;46.10;;;;;;5133343;28;20027;-75
2022/04/21 02:17:32;;;;;;;9.35;5.80;;;10.40;45.80;;;;;;5115621;28;20118;-75
2022/04/21 02:19:58;;;;;;;7.78;5.57;;;10.40;45.90;;;;;;5115370;28;20035;-76
2022/04/21 02:22:28;;;;;;;7.55;4.97;;;10.40;45.70;;;;;;5103790;28;20040;-76
2022/04/21 02:24:56;;;;;;;9.00;5.78;;;10.40;45.70;;;;;;5113743;28;20089;-75
2022/04/21 02:27:22;;;;;;;9.93;6.30;;;10.40;46.00;;;;;;5113323;28;20111;-75
2022/04/21 02:29:48;;;;;;;12.45;5.90;;;10.40;46.10;;;;;;5112044;28;20027;-75
2022/04/21 02:32:15;;;;;;;7.53;5.60;;;10.40;46.10;;;;;;5113756;28;20031;-75
2022/04/21 02:34:41;;;;;;;7.70;5.53;;;10.40;46.30;;;;;;5115376;28;20027;-75
2022/04/21 02:37:07;;;;;;;8.13;5.70;;;10.40;46.30;;;;;;5115294;28;20023;-75
2022/04/21 02:39:36;;;;;;;8.48;5.63;;;10.40;46.30;;;;;;5115405;28;20029;-75
2022/04/21 02:42:05;;;;;;;9.02;5.68;;;10.40;46.10;;;;;;5114845;28;20054;-75
2022/04/21 02:44:31;;;;;;;7.95;5.47;;;10.50;46.00;;;;;;5114722;28;20444;-75
2022/04/21 02:46:59;;;;;;;7.95;5.22;;;10.50;45.80;;;;;;5114991;28;20076;-75
2022/04/21 02:49:26;;;;;;;9.18;5.78;;;10.50;45.80;;;;;;5115162;28;20023;-74
2022/04/21 02:51:53;;;;;;;8.18;5.70;;;10.50;45.80;;;;;;5115090;28;20084;-76
2022/04/21 02:57:22;;;;;;;;;;;10.50;45.70;;;;;;5134190;28;20046;-75
2022/04/21 02:59:55;;;;;;;8.90;6.07;;;10.50;45.10;;;;;;5115081;28;19975;-75
2022/04/21 03:02:22;;;;;;;10.50;5.70;;;10.50;45.70;;;;;;5115322;28;20034;-75
2022/04/21 03:04:52;;;;;;;10.13;5.75;;;10.50;45.80;;;;;;5115312;27;20023;-75
2022/04/21 03:07:22;;;;;;;11.90;6.57;;;10.50;45.80;;;;;;5118723;27;20080;-75
2022/04/21 03:09:55;;;;;;;9.38;5.50;;;10.50;45.70;;;;;;5137245;27;20074;-75
2022/04/21 03:12:26;;;;;;;7.22;5.30;;;10.50;45.80;;;;;;5118463;27;20037;-75
2022/04/21 03:14:55;;;;;;;7.97;5.50;;;10.50;45.80;;;;;;5118523;27;20047;-75
2022/04/21 03:17:21;;;;;;;8.80;6.22;;;10.50;45.70;;;;;;5118459;27;20027;-74
2022/04/21 03:19:47;;;;;;;9.52;5.68;;;10.50;45.70;;;;;;5118511;27;20114;-75
2022/04/21 03:25:06;;;;;;;10.75;6.45;;;10.50;45.70;;;;;;5136955;27;20431;-75
2022/04/21 03:27:36;;;;;;;7.82;5.38;;;10.50;45.80;;;;;;5118110;27;20076;-74
2022/04/21 03:30:08;;;;;;;8.98;5.70;;;10.60;45.70;;;;;;5118032;27;20059;-75
2022/04/21 03:32:37;;;;;;;14.55;6.10;;;10.60;45.80;;;;;;5118093;27;20367;-75
2022/04/21 03:35:03;;;;;;;9.02;5.00;;;10.60;45.80;;;;;;5097852;28;20123;-75
2022/04/21 03:37:29;;;;;;;11.57;6.60;;;10.60;45.60;;;;;;5112340;28;20100;-75
2022/04/21 03:39:58;;;;;;;11.40;6.80;;;10.70;45.80;;;;;;5097780;28;20030;-75
2022/04/21 03:42:31;;;;;;;9.45;6.22;;;10.70;45.80;;;;;;5112317;28;20048;-76
2022/04/21 03:44:59;;;;;;;10.68;6.30;;;10.70;45.90;;;;;;5110710;28;20032;-76
2022/04/21 03:47:25;;;;;;;11.80;6.65;;;10.70;45.70;;;;;;5097650;28;20087;-75
2022/04/21 03:49:51;;;;;;;10.25;6.57;;;10.70;45.90;;;;;;5114393;28;20110;-76
2022/04/21 03:52:17;;;;;;;11.43;6.68;;;10.80;45.90;;;;;;5113945;28;20073;-75
2022/04/21 03:54:43;;;;;;;14.88;7.40;;;10.80;45.90;;;;;;5114179;28;20115;-75
2022/04/21 03:57:12;;;;;;;10.15;6.72;;;10.80;45.90;;;;;;5114135;28;20020;-75
2022/04/21 03:59:38;;;;;;;16.80;8.65;;;10.80;45.80;;;;;;5114304;28;20089;-75
2022/04/21 04:02:05;;;;;;;10.15;6.60;;;10.80;45.80;;;;;;5113962;28;20119;-75
2022/04/21 04:04:38;;;;;;;12.40;6.60;;;10.90;45.80;;;;;;5113896;28;20050;-75
2022/04/21 04:12:36;;;;;;;8.73;6.25;;;10.90;45.70;;;;;;5115189;28;20091;-75
2022/04/21 04:15:04;;;;;;;11.68;6.82;;;11.00;45.70;;;;;;5113745;28;20031;-75
2022/04/21 04:17:31;;;;;;;9.40;6.10;;;11.00;45.70;;;;;;5115814;27;20023;-75
2022/04/21 04:19:57;;;;;;;17.73;9.57;;;11.00;45.70;;;;;;5117228;27;20062;-75
2022/04/21 04:22:23;;;;;;;19.35;10.43;;;11.10;45.90;;;;;;5117045;27;20480;-76
2022/04/21 04:24:54;;;;;;;18.35;10.38;;;11.10;45.90;;;;;;5116769;27;20031;-75
2022/04/21 04:27:25;;;;;;;15.57;9.30;;;11.10;45.80;;;;;;5117073;27;20419;-75
2022/04/21 04:29:51;;;;;;;11.60;7.90;;;11.10;45.80;;;;;;5116903;27;20038;-76
2022/04/21 04:32:17;;;;;;;11.38;7.57;;;11.20;45.80;;;;;;5116892;27;20027;-75
2022/04/21 04:34:44;;;;;;;18.70;10.63;;;11.20;45.90;;;;;;5116992;27;20030;-75
2022/04/21 04:37:10;;;;;;;15.07;9.70;;;11.30;45.90;;;;;;5116835;27;20031;-75
2022/04/21 04:39:36;;;;;;;13.68;8.02;;;11.30;45.80;;;;;;5116891;27;20028;-75
2022/04/21 04:42:17;;;;;;;11.30;7.75;;;11.40;45.80;;;;;;5100546;28;20136;-75
2022/04/21 04:44:47;;;;;;;10.85;7.22;;;11.40;45.50;;;;;;5096471;28;20118;-76
2022/04/21 04:47:14;;;;;;;17.92;7.80;;;11.50;45.30;;;;;;5096406;28;20486;-75
2022/04/21 04:49:40;;;;;;;9.80;6.63;;;11.60;45.30;;;;;;5096406;28;20054;-76
2022/04/21 04:52:08;;;;;;;12.52;7.07;;;11.60;45.20;;;;;;5096041;28;20114;-75
2022/04/21 04:54:34;;;;;;;13.57;8.02;;;11.70;45.10;;;;;;5096099;28;20085;-75
2022/04/21 04:57:00;;;;;;;13.45;7.90;;;11.80;45.00;;;;;;5096319;28;20047;-75
2022/04/21 04:59:27;;;;;;;14.13;7.82;;;11.90;45.00;;;;;;5096176;28;20053;-76
2022/04/21 05:01:53;;;;;;;13.35;7.78;;;11.90;45.00;;;;;;5113922;28;20024;-76
2022/04/21 05:04:21;;;;;;;13.32;7.05;;;12.00;45.00;;;;;;5096121;28;20028;-75
2022/04/21 05:06:52;;;;;;;11.73;7.45;;;12.10;44.90;;;;;;5096030;28;20027;-75
2022/04/21 05:09:21;;;;;;;12.25;8.00;;;12.10;44.70;;;;;;5095758;28;20026;-75
2022/04/21 05:11:53;;;;;;;11.32;7.75;;;12.20;44.60;;;;;;5095679;28;20109;-75
2022/04/21 05:14:21;;;;;;;11.75;8.38;;;12.30;44.50;;;;;;5094943;28;20158;-75
2022/04/21 05:16:48;;;;;;;16.52;8.07;;;12.40;44.30;;;;;;5096037;28;20028;-75
2022/04/21 05:19:16;;;;;;;13.77;8.23;;;12.50;44.20;;;;;;5095518;28;20110;-75
2022/04/21 05:21:44;;;;;;;10.90;8.13;;;12.50;44.10;;;;;;5095392;28;20030;-75
2022/04/21 05:24:11;;;;;;;10.63;7.38;;;12.60;44.10;;;;;;5095691;28;20058;-75
2022/04/21 05:26:38;;;;;;;15.88;8.82;;;12.60;44.00;;;;;;5076386;28;20061;-76
2022/04/21 05:31:58;;;;;;;22.70;10.50;;;12.70;43.90;;;;;;5104099;28;20118;-77
2022/04/21 05:34:24;;;;;;;17.63;10.95;;;12.70;43.80;;;;;;5095404;28;20070;-75
2022/04/21 05:36:51;;;;;;;23.10;10.00;;;12.70;43.70;;;;;;5095516;28;20020;-75
2022/04/21 05:39:17;;;;;;;32.83;12.85;;;12.80;43.70;;;;;;5095298;28;20035;-76
2022/04/21 05:41:44;;;;;;;26.42;13.65;;;12.80;43.80;;;;;;5088103;28;20047;-75
2022/04/21 05:44:11;;;;;;;30.65;14.98;;;12.80;43.70;;;;;;5095376;28;20028;-75
2022/04/21 05:46:37;;;;;;;28.13;15.85;;;12.80;43.70;;;;;;5095451;28;20085;-75
2022/04/21 05:49:03;;;;;;;28.88;17.88;;;12.90;43.80;;;;;;5113295;28;20035;-75
2022/04/21 05:51:30;;;;;;;30.67;18.17;;;12.90;43.60;;;;;;5094535;28;20028;-75
2022/04/21 05:53:58;;;;;;;25.58;15.10;;;13.00;43.50;;;;;;5112181;28;20367;-75
2022/04/21 05:56:25;;;;;;;25.20;12.60;;;13.00;43.30;;;;;;5091741;28;20076;-75
2022/04/21 05:58:51;;;;;;;19.73;10.80;;;13.00;43.20;;;;;;5093323;28;20023;-75
2022/04/21 06:01:18;;;;;;;13.75;8.98;;;13.00;43.00;;;;;;5091745;28;20031;-75
2022/04/21 06:03:44;;;;;;;17.13;11.02;;;13.00;43.00;;;;;;5094910;28;20067;-75
2022/04/21 06:06:11;;;;;;;28.88;11.60;;;13.00;42.90;;;;;;5113353;28;20114;-75
2022/04/21 06:08:38;;;;;;;16.73;10.05;;;13.00;42.80;;;;;;5094767;28;20032;-76
2022/04/21 06:11:04;;;;;;;16.85;10.18;;;12.90;42.80;;;;;;5109967;28;20027;-75
2022/04/21 06:13:31;;;;;;;23.60;14.00;;;12.90;42.90;;;;;;5104437;28;20039;-75
2022/04/21 06:15:58;;;;;;;22.42;14.07;;;12.80;43.00;;;;;;5112158;28;20471;-75
2022/04/21 06:18:25;;;;;;;24.83;11.63;;;12.80;43.00;;;;;;5098416;28;20027;-75
2022/04/21 06:20:52;;;;;;;31.00;13.35;;;12.80;43.10;;;;;;5115591;28;20027;-76
2022/04/21 06:23:19;;;;;;;24.13;13.48;;;12.80;43.20;;;;;;5100571;28;20034;-75
2022/04/21 06:25:45;;;;;;;19.92;12.20;;;12.90;43.30;;;;;;5095517;28;20035;-76
2022/04/21 06:28:12;;;;;;;23.23;12.63;;;12.90;43.40;;;;;;5095568;28;20348;-75
2022/04/21 06:30:39;;;;;;;21.55;12.68;;;13.00;43.50;;;;;;5096110;28;20070;-75
2022/04/21 06:33:05;;;;;;;17.58;10.18;;;13.10;43.50;;;;;;5095424;28;20382;-75
2022/04/21 06:35:31;;;;;;;18.08;11.07;;;13.20;43.50;;;;;;5095244;28;20024;-75
2022/04/21 06:37:57;;;;;;;22.27;13.48;;;13.30;43.40;;;;;;5094952;28;20092;-76
2022/04/21 06:40:23;;;;;;;25.35;13.60;;;13.50;43.30;;;;;;5095521;28;20054;-75
2022/04/21 06:42:50;;;;;;;24.10;12.35;;;13.60;43.10;;;;;;5098997;28;20024;-75
2022/04/21 06:48:07;;;;;;;18.92;12.40;;;13.80;42.90;;;;;;5116981;28;20030;-75
2022/04/21 06:50:36;;;;;;;23.50;14.10;;;14.00;42.60;;;;;;5088479;28;20441;-76
2022/04/21 06:53:03;;;;;;;19.40;12.43;;;14.00;42.30;;;;;;5093745;28;20391;-75
2022/04/21 06:55:29;;;;;;;16.92;11.13;;;14.10;42.20;;;;;;5095189;28;20032;-75
2022/04/21 06:57:55;;;;;;;22.40;11.30;;;14.30;42.10;;;;;;5097283;27;20054;-75
2022/04/21 07:00:22;;;;;;;22.77;10.73;;;14.40;42.20;;;;;;5102530;28;20036;-75
2022/04/21 07:02:52;;;;;;;16.10;9.88;;;14.50;42.00;;;;;;5104472;27;20023;-76
2022/04/21 07:05:18;;;;;;;14.57;9.52;;;14.60;41.90;;;;;;5113641;28;20028;-75
2022/04/21 07:07:44;;;;;;;15.75;10.55;;;14.80;41.60;;;;;;5097037;28;20051;-75
2022/04/21 07:10:11;;;;;;;18.20;10.50;;;14.90;41.50;;;;;;5097130;28;20057;-75
2022/04/21 07:12:37;;;;;;;14.35;10.43;;;15.10;41.40;;;;;;5078136;28;20123;-76
2022/04/21 07:15:08;;;;;;;15.70;11.70;;;15.20;40.90;;;;;;5084681;28;20050;-76
2022/04/21 07:17:36;;;;;;;16.23;10.32;;;15.40;40.10;;;;;;5097149;28;20024;-75
2022/04/21 07:20:06;;;;;;;22.40;10.45;;;15.50;39.70;;;;;;5097516;28;20024;-77
2022/04/21 07:22:32;;;;;;;11.75;8.13;;;15.50;39.60;;;;;;5114720;28;20153;-76
2022/04/21 07:25:00;;;;;;;13.88;9.50;;;15.60;39.40;;;;;;5098052;28;20115;-75
2022/04/21 07:27:26;;;;;;;13.30;8.80;;;15.70;39.40;;;;;;5114365;28;20042;-73
2022/04/21 07:29:52;;;;;;;12.48;8.68;;;15.90;39.40;;;;;;5094698;28;20696;-74
2022/04/21 07:32:18;;;;;;;13.60;9.13;;;16.00;39.20;;;;;;5096901;28;20020;-74
2022/04/21 07:34:44;;;;;;;13.30;8.60;;;16.10;39.00;;;;;;5116210;28;20012;-73
2022/04/21 07:37:10;;;;;;;12.52;8.85;;;16.20;38.30;;;;;;5097787;28;20020;-73
2022/04/21 07:39:37;;;;;;;14.10;9.48;;;16.30;38.20;;;;;;5097906;28;20065;-74
2022/04/21 07:42:07;;;;;;;11.73;8.55;;;16.50;38.00;;;;;;5097514;28;20079;-73
2022/04/21 07:44:36;;;;;;;11.65;8.48;;;16.60;37.70;;;;;;5097793;28;20034;-73
2022/04/21 07:47:03;;;;;;;12.43;8.27;;;16.70;37.80;;;;;;5097730;28;20042;-74
2022/04/21 07:49:45;;;;;;;11.98;8.77;;;16.80;37.60;;;;;;5097521;28;20024;-74
2022/04/21 07:55:18;;;;;;;16.08;9.30;;;17.00;36.70;;;;;;5115595;28;20041;-74
2022/04/21 07:57:46;;;;;;;12.27;8.90;;;17.10;36.10;;;;;;5097597;28;20024;-73
2022/04/21 08:00:14;;;;;;;11.73;8.82;;;17.20;36.00;;;;;;5097366;28;20023;-74
2022/04/21 08:02:41;;;;;;;13.32;8.85;;;17.30;36.00;;;;;;5097286;28;20108;-73
2022/04/21 08:05:09;;;;;;;15.77;9.27;;;17.30;35.80;;;;;;5097363;28;20456;-73
2022/04/21 08:07:36;;;;;;;15.10;8.70;;;17.40;35.40;;;;;;5097089;28;20031;-74
2022/04/21 08:10:04;;;;;;;11.50;8.93;;;17.40;35.20;;;;;;5096940;28;20088;-74
2022/04/21 08:12:41;;;;;;;23.65;9.02;;;17.40;34.90;;;;;;5097158;28;20114;-73
2022/04/21 08:15:08;;;;;;;13.40;8.77;;;17.30;35.10;;;;;;5097097;28;20050;-74
2022/04/21 08:17:36;;;;;;;13.85;9.13;;;17.40;35.70;;;;;;5097132;28;20118;-73
2022/04/21 08:20:07;;;;;;;11.45;8.85;;;17.30;35.50;;;;;;5097123;28;20043;-73
2022/04/21 08:22:33;;;;;;;16.00;10.63;;;17.30;34.80;;;;;;5096852;28;20035;-73
2022/04/21 08:33:14;;;;;;;18.92;10.85;;;17.20;35.30;;;;;;5115132;28;20038;-73
2022/04/21 08:35:40;;;;;;;22.27;12.10;;;17.30;35.50;;;;;;5114936;28;20035;-74
2022/04/21 08:38:07;;;;;;;18.35;11.80;;;17.40;35.60;;;;;;5096490;28;20032;-73
2022/04/21 08:40:36;;;;;;;16.20;11.68;;;17.40;35.40;;;;;;5096028;28;20067;-74
2022/04/21 08:43:13;;;;;;;14.88;10.57;;;17.50;35.00;;;;;;5096206;28;20031;-74
2022/04/21 08:45:41;;;;;;;13.40;9.70;;;17.60;35.10;;;;;;5096866;28;20034;-73
2022/04/21 08:48:09;;;;;;;19.75;10.88;;;17.70;35.20;;;;;;5096561;28;20459;-73
2022/04/21 08:50:37;;;;;;;16.73;10.52;;;17.80;35.30;;;;;;5096505;28;20031;-75
2022/04/21 08:53:03;;;;;;;17.98;11.00;;;17.90;34.70;;;;;;5096327;28;20066;-73
2022/04/21 08:55:29;;;;;;;21.95;13.57;;;18.00;34.50;;;;;;5096363;28;20360;-74
2022/04/21 08:57:56;;;;;;;22.02;11.45;;;18.00;34.30;;;;;;5096152;28;20026;-73
2022/04/21 09:00:22;;;;;;;21.60;11.63;;;18.00;34.70;;;;;;5096111;28;20032;-73
2022/04/21 09:02:49;;;;;;;14.93;10.68;;;18.00;34.60;;;;;;5095663;28;20066;-73
2022/04/21 09:05:15;;;;;;;18.23;11.48;;;18.10;34.40;;;;;;5096133;28;20456;-74
2022/04/21 09:07:48;;;;;;;20.23;10.68;;;18.10;34.30;;;;;;5096125;28;20031;-73
2022/04/21 09:10:15;;;;;;;20.55;10.77;;;18.10;34.10;;;;;;5096101;28;20023;-73
2022/04/21 09:12:46;;;;;;;16.88;10.23;;;18.10;34.10;;;;;;5096156;28;20361;-73
2022/04/21 09:15:14;;;;;;;17.42;10.57;;;18.10;34.00;;;;;;5096031;28;20031;-73
2022/04/21 09:17:51;;;;;;;14.82;10.02;;;18.10;34.30;;;;;;5095587;28;20035;-73
2022/04/21 09:20:26;;;;;;;22.95;10.25;;;18.20;34.30;;;;;;5095902;28;20059;-74
2022/04/21 09:23:04;;;;;;;15.75;9.45;;;18.20;34.20;;;;;;5095872;28;20043;-73
2022/04/21 09:25:43;;;;;;;16.38;9.55;;;18.30;34.30;;;;;;5114017;28;20028;-73
2022/04/21 09:28:24;;;;;;;16.08;9.48;;;18.30;34.30;;;;;;5095960;28;20028;-73
2022/04/21 09:30:52;;;;;;;21.90;9.70;;;18.40;34.40;;;;;;5095818;28;20066;-73
2022/04/21 09:33:35;;;;;;;13.00;8.10;;;18.50;34.40;;;;;;5095623;28;20023;-74
2022/04/21 09:36:06;;;;;;;17.08;9.80;;;18.60;34.30;;;;;;5095771;28;20024;-74
2022/04/21 09:38:34;;;;;;;19.58;10.98;;;18.60;34.00;;;;;;5095597;28;20153;-73
2022/04/21 09:41:13;;;;;;;17.20;10.32;;;18.70;33.60;;;;;;5102030;27;20047;-74
2022/04/21 09:43:41;;;;;;;19.00;9.57;;;18.70;33.50;;;;;;5115917;27;20071;-74
2022/04/21 09:46:17;;;;;;;27.50;10.80;;;18.80;33.70;;;;;;5134102;27;20027;-74
2022/04/21 09:48:44;;;;;;;17.48;10.57;;;18.80;33.10;;;;;;5115985;27;20027;-74
2022/04/21 09:51:22;;;;;;;19.95;10.70;;;18.90;33.40;;;;;;5115920;27;20023;-73
2022/04/21 09:54:00;;;;;;;24.45;11.10;;;18.90;33.20;;;;;;5116000;28;20357;-73
2022/04/21 09:56:37;;;;;;;23.48;11.30;;;18.90;33.10;;;;;;5133989;28;20493;-74
2022/04/21 09:59:13;;;;;;;17.45;10.25;;;18.90;32.90;;;;;;5115740;28;20122;-73
2022/04/21 10:01:42;;;;;;;21.15;10.18;;;18.90;33.30;;;;;;5115669;28;20023;-73
2022/04/21 10:04:17;;;;;;;17.80;10.85;;;18.90;32.90;;;;;;5099008;28;20601;-73
2022/04/21 10:06:44;;;;;;;18.40;9.93;;;18.80;32.70;;;;;;5133855;28;20028;-73
2022/04/21 10:09:12;;;;;;;18.45;10.23;;;18.80;33.10;;;;;;5133895;28;20569;-73
2022/04/21 10:11:38;;;;;;;16.92;10.38;;;18.80;33.50;;;;;;5116022;28;20375;-74
2022/04/21 10:14:07;;;;;;;18.20;11.40;;;18.80;33.80;;;;;;5134194;27;20093;-73
2022/04/21 10:16:33;;;;;;;17.50;10.88;;;18.80;33.60;;;;;;5119796;27;20031;-73
2022/04/21 10:19:01;;;;;;;15.93;10.13;;;18.80;33.80;;;;;;5119853;27;20049;-74
2022/04/21 10:21:37;;;;;;;16.35;11.05;;;18.80;33.90;;;;;;5119870;27;20110;-74
2022/04/21 10:24:06;;;;;;;14.85;9.93;;;18.80;33.70;;;;;;5119631;27;20038;-74
2022/04/21 10:26:40;;;;;;;15.30;10.57;;;18.70;33.80;;;;;;5120027;27;20035;-74
2022/04/21 10:29:12;;;;;;;19.17;12.05;;;18.70;34.60;;;;;;5119732;27;20355;-74
2022/04/21 10:31:50;;;;;;;14.15;10.38;;;18.80;34.20;;;;;;5119466;27;20031;-74
2022/04/21 10:34:37;;;;;;;16.48;9.63;;;18.70;34.20;;;;;;5119504;27;20123;-74
2022/04/21 10:37:21;;;;;;;17.55;11.07;;;18.70;34.00;;;;;;5119316;27;20390;-75
2022/04/21 10:40:09;;;;;;;15.93;12.30;;;18.70;33.90;;;;;;5118999;27;20038;-74
2022/04/21 10:42:55;;;;;;;17.63;13.02;;;18.70;33.70;;;;;;5118366;27;20062;-74
2022/04/21 10:45:27;;;;;;;25.77;13.02;;;18.60;33.90;;;;;;5118985;27;20035;-74
2022/04/21 10:48:03;;;;;;;21.67;13.25;;;18.60;34.00;;;;;;5119206;27;20031;-74
2022/04/21 10:50:33;;;;;;;17.42;13.10;;;18.50;34.20;;;;;;5119260;27;20024;-74
2022/04/21 10:58:37;;;;;;;18.70;13.02;;;18.80;34.90;;;;;;5138197;27;20023;-74
2022/04/21 11:01:52;;;;;;;27.13;14.35;;;19.00;34.70;;;;;;5119118;27;20471;-74
2022/04/21 11:04:19;;;;;;;22.25;14.30;;;19.30;34.50;;;;;;5076936;28;20061;-74
2022/04/21 11:07:04;;;;;;;21.38;13.75;;;19.50;33.80;;;;;;5076715;28;20036;-74
2022/04/21 11:09:42;;;;;;;19.15;13.93;;;19.70;33.30;;;;;;5076534;28;20020;-74
2022/04/21 11:12:13;;;;;;;18.73;13.68;;;19.90;33.30;;;;;;5077098;28;20466;-73
2022/04/21 11:14:39;;;;;;;17.85;11.40;;;20.10;32.70;;;;;;5077750;28;20035;-74
2022/04/21 11:17:06;;;;;;;12.93;10.70;;;20.40;32.90;;;;;;5097063;28;20046;-74
2022/04/21 11:19:50;;;;;;;15.18;11.10;;;20.70;32.40;;;;;;5097024;28;20097;-74
2022/04/21 11:22:36;;;;;;;13.80;10.32;;;21.00;31.50;;;;;;5097143;28;20027;-74
2022/04/21 11:25:04;;;;;;;11.77;9.65;;;21.20;31.90;;;;;;5113908;28;20044;-74
2022/04/21 11:27:31;;;;;;;18.77;11.38;;;21.50;31.00;;;;;;5095971;28;20053;-74
2022/04/21 11:30:07;;;;;;;12.55;9.73;;;21.60;30.30;;;;;;5096759;28;20119;-74
2022/04/21 11:32:33;;;;;;;13.45;10.68;;;21.70;30.00;;;;;;5096651;28;20040;-74
2022/04/21 11:35:11;;;;;;;15.52;10.43;;;21.80;30.20;;;;;;5096673;28;20047;-74
2022/04/21 11:37:57;;;;;;;12.13;10.40;;;21.90;30.00;;;;;;5096904;28;20044;-74
2022/04/21 11:40:37;;;;;;;10.07;7.60;;;21.80;29.80;;;;;;5097612;28;20368;-74
2022/04/21 11:43:21;;;;;;;13.05;7.78;;;21.80;29.90;;;;;;5097644;28;20467;-74
2022/04/21 11:45:58;;;;;;;9.50;7.45;;;21.80;29.90;;;;;;5097748;28;20120;-74
2022/04/21 11:48:37;;;;;;;10.77;7.68;;;21.70;29.50;;;;;;5097666;28;20028;-74
2022/04/21 11:51:03;;;;;;;9.27;7.00;;;21.70;29.40;;;;;;5097652;28;20051;-75
2022/04/21 11:53:34;;;;;;;8.07;6.50;;;21.70;29.50;;;;;;5097193;28;20467;-75
2022/04/21 11:56:00;;;;;;;8.00;6.40;;;21.70;29.60;;;;;;5097353;28;20016;-75
2022/04/21 11:58:34;;;;;;;14.02;7.80;;;21.70;29.40;;;;;;5097307;28;20031;-74
2022/04/21 12:06:55;;;;;;;10.45;7.15;;;21.80;28.80;;;;;;5115723;28;20074;-74
2022/04/21 12:09:29;;;;;;;11.07;7.47;;;21.80;28.80;;;;;;5097368;28;20479;-74
2022/04/21 12:11:57;;;;;;;11.00;7.40;;;21.70;28.70;;;;;;5115244;28;20433;-74
2022/04/21 12:14:23;;;;;;;8.80;6.55;;;21.60;28.10;;;;;;5125708;27;20493;-74
2022/04/21 12:17:00;;;;;;;7.72;6.53;;;21.60;28.20;;;;;;5100750;27;20034;-74
2022/04/21 12:19:52;;;;;;;7.88;5.68;;;21.60;28.20;;;;;;5136009;27;20015;-74
2022/04/21 12:22:20;;;;;;;9.20;6.50;;;21.50;28.40;;;;;;5114636;27;20063;-74
2022/04/21 12:24:54;;;;;;;9.80;5.20;;;21.50;28.00;;;;;;5117220;27;20037;-74
2022/04/21 12:27:37;;;;;;;7.72;5.57;;;21.40;28.00;;;;;;5135762;27;20377;-74
2022/04/21 12:30:12;;;;;;;7.22;5.72;;;21.40;28.00;;;;;;5117233;27;20076;-74
2022/04/21 12:32:40;;;;;;;9.35;5.97;;;21.40;28.20;;;;;;5135507;27;20107;-74
2022/04/21 12:35:08;;;;;;;6.80;5.30;;;21.30;28.30;;;;;;5117213;27;20027;-75
2022/04/21 12:37:39;;;;;;;9.23;6.05;;;21.30;28.10;;;;;;5116505;28;20100;-74
2022/04/21 12:40:10;;;;;;;7.07;5.68;;;21.30;28.00;;;;;;5116716;27;20023;-74
2022/04/21 12:42:38;;;;;;;6.68;5.20;;;21.30;27.70;;;;;;5116756;27;20107;-75
2022/04/21 12:45:06;;;;;;;7.68;5.70;;;21.30;27.40;;;;;;5116788;27;20054;-74
2022/04/21 12:47:50;;;;;;;8.10;5.68;;;21.40;27.40;;;;;;5116883;27;20113;-74
2022/04/21 12:50:25;;;;;;;13.93;8.07;;;21.50;27.40;;;;;;5116851;27;20023;-74
2022/04/21 12:52:52;;;;;;;8.70;5.40;;;21.50;27.20;;;;;;5116911;27;20035;-75
2022/04/21 12:55:19;;;;;;;7.30;5.10;;;21.60;27.30;;;;;;5116759;27;20027;-76
2022/04/21 12:58:02;;;;;;;9.43;6.07;;;21.60;27.30;;;;;;5116760;27;20309;-75
2022/04/21 13:00:42;;;;;;;13.68;5.50;;;21.60;27.50;;;;;;5146731;27;20362;-72
2022/04/21 13:03:10;;;;;;;8.75;5.32;;;21.70;27.30;;;;;;5130977;28;20039;-72
2022/04/21 13:05:51;;;;;;;9.18;5.20;;;21.80;27.50;;;;;;5130907;28;20016;-72
2022/04/21 13:08:21;;;;;;;5.75;3.90;;;21.80;26.20;;;;;;5130991;28;20019;-72
2022/04/21 13:10:47;;;;;;;8.18;4.80;;;21.90;26.70;;;;;;5129582;28;20020;-72
2022/04/21 13:13:13;;;;;;;6.38;4.88;;;22.00;26.90;;;;;;5129404;28;20015;-73
2022/04/21 13:15:39;;;;;;;7.53;5.43;;;22.10;27.00;;;;;;5130740;28;20031;-72
2022/04/21 13:18:05;;;;;;;7.82;5.65;;;22.20;26.90;;;;;;5129477;28;20016;-72
2022/04/21 13:23:15;;;;;;;6.07;4.18;;;22.40;27.00;;;;;;5130666;28;20030;-72
2022/04/21 13:25:42;;;;;;;6.45;5.15;;;22.50;26.90;;;;;;5130925;28;20023;-72
2022/04/21 13:28:09;;;;;;;5.28;4.38;;;22.60;26.90;;;;;;5130887;28;20053;-72
2022/04/21 13:30:34;;;;;;;5.78;4.07;;;22.60;26.90;;;;;;5131102;28;20098;-72
2022/04/21 13:35:45;;;;;;;10.18;4.82;;;22.70;26.70;;;;;;5130702;28;20478;-72
2022/04/21 13:38:11;;;;;;;6.40;4.50;;;22.80;26.70;;;;;;5130153;28;20094;-72
2022/04/21 13:40:36;;;;;;;6.50;4.75;;;22.80;26.80;;;;;;5130256;27;20015;-72
2022/04/21 13:43:02;;;;;;;6.85;4.20;;;22.80;26.40;;;;;;5130201;28;20098;-72